createdAt,value
2022-12-08T00:01:07.544Z,97790.16
2022-12-08T00:03:34.682Z,97788.59
2022-12-08T00:06:21.755Z,97766.09
2022-12-08T00:09:07.021Z,97776.09
2022-12-08T00:11:34.095Z,97774.25
2022-12-08T00:14:00.851Z,97767.66
2022-12-08T00:16:27.354Z,97770.66
2022-12-08T00:18:53.918Z,97771.09
2022-12-08T00:21:20.399Z,97766.00
2022-12-08T00:23:46.805Z,97760.75
2022-12-08T00:26:13.238Z,97758.38
2022-12-08T00:28:39.665Z,97759.13
2022-12-08T00:31:11.550Z,97752.84
2022-12-08T00:33:38.468Z,97728.28
2022-12-08T00:36:10.357Z,97740.31
2022-12-08T00:38:37.240Z,97742.31
2022-12-08T00:41:07.352Z,97716.94
2022-12-08T00:43:33.824Z,97731.44
2022-12-08T00:46:00.334Z,97737.88
2022-12-08T00:48:26.894Z,97738.34
2022-12-08T00:50:53.313Z,97742.22
2022-12-08T00:53:19.745Z,97743.22
2022-12-08T00:55:46.246Z,97738.59
2022-12-08T00:58:13.121Z,97743.22
2022-12-08T01:00:43.205Z,97736.59
2022-12-08T01:03:13.242Z,97736.84
2022-12-08T01:05:40.010Z,97728.06
2022-12-08T01:08:08.119Z,97726.22
2022-12-08T01:10:36.494Z,97728.50
2022-12-08T01:13:03.638Z,97721.53
2022-12-08T01:15:30.155Z,97724.97
2022-12-08T01:17:56.659Z,97722.34
2022-12-08T01:20:23.153Z,97723.34
2022-12-08T01:22:49.574Z,97708.56
2022-12-08T01:25:16.187Z,97712.44
2022-12-08T01:27:42.586Z,97710.63
2022-12-08T01:30:09.694Z,97714.72
2022-12-08T01:32:36.169Z,97706.63
2022-12-08T01:35:02.703Z,97717.72
2022-12-08T01:37:29.649Z,97713.34
2022-12-08T01:39:56.100Z,97701.75
2022-12-08T01:42:23.266Z,97705.19
2022-12-08T01:44:54.241Z,97710.28
2022-12-08T01:47:22.779Z,97718.34
2022-12-08T01:49:49.348Z,97703.72
2022-12-08T01:52:43.076Z,97702.38
2022-12-08T01:55:22.804Z,97706.38
2022-12-08T01:57:52.774Z,97703.72
2022-12-08T02:00:21.594Z,97702.94
2022-12-08T02:02:59.459Z,97686.38
2022-12-08T02:05:29.375Z,97676.16
2022-12-08T02:07:57.819Z,97683.97
2022-12-08T02:10:29.593Z,97677.41
2022-12-08T02:12:58.758Z,97677.63
2022-12-08T02:15:50.792Z,97682.88
2022-12-08T02:18:39.731Z,97663.84
2022-12-08T02:21:23.317Z,97672.72
2022-12-08T02:23:59.149Z,97669.66
2022-12-08T02:26:46.948Z,97671.28
2022-12-08T02:29:45.372Z,97675.72
2022-12-08T02:32:49.266Z,97678.53
2022-12-08T02:35:18.698Z,97671.28
2022-12-08T02:37:56.911Z,97673.28
2022-12-08T02:40:49.742Z,97674.94
2022-12-08T02:43:38.825Z,97662.75
2022-12-08T02:46:11.254Z,97664.13
2022-12-08T02:48:38.371Z,97658.31
2022-12-08T02:51:06.214Z,97667.19
2022-12-08T02:53:35.137Z,97662.38
2022-12-08T02:56:14.858Z,97657.38
2022-12-08T02:59:10.261Z,97642.06
2022-12-08T03:01:37.105Z,97654.66
2022-12-08T03:04:27.721Z,97651.03
2022-12-08T03:07:11.496Z,97651.03
2022-12-08T03:10:07.831Z,97644.34
2022-12-08T03:12:42.916Z,97644.78
2022-12-08T03:15:14.363Z,97644.22
2022-12-08T03:17:45.657Z,97643.50
2022-12-08T03:20:18.289Z,97599.78
2022-12-08T03:22:47.026Z,97647.59
2022-12-08T03:25:15.388Z,97640.31
2022-12-08T03:27:42.070Z,97644.13
2022-12-08T03:30:09.910Z,97635.56
2022-12-08T03:32:41.348Z,97642.06
2022-12-08T03:35:15.389Z,97629.84
2022-12-08T03:37:42.127Z,97627.06
2022-12-08T03:40:11.477Z,97629.84
2022-12-08T03:42:38.105Z,97624.16
2022-12-08T03:45:05.393Z,97624.53
2022-12-08T03:47:31.864Z,97621.69
2022-12-08T03:49:59.328Z,97620.72
2022-12-08T03:52:25.782Z,97616.28
2022-12-08T03:54:52.188Z,97613.44
2022-12-08T03:57:18.623Z,97604.31
2022-12-08T03:59:45.029Z,97604.72
2022-12-08T04:02:11.569Z,97606.38
2022-12-08T04:04:38.050Z,97595.84
2022-12-08T04:07:04.530Z,97596.84
2022-12-08T04:09:31.543Z,97593.38
2022-12-08T04:11:58.002Z,97592.97
2022-12-08T04:14:24.447Z,97588.94
2022-12-08T04:16:50.843Z,97590.59
2022-12-08T04:19:17.349Z,97587.94
2022-12-08T04:21:43.821Z,97574.78
2022-12-08T04:24:10.294Z,97576.41
2022-12-08T04:26:36.677Z,97581.66
2022-12-08T04:29:03.242Z,97572.16
2022-12-08T04:31:29.789Z,97565.88
2022-12-08T04:33:56.553Z,97560.63
2022-12-08T04:36:23.095Z,97565.09
2022-12-08T04:38:49.603Z,97557.81
2022-12-08T04:41:16.026Z,97557.00
2022-12-08T04:43:44.266Z,97562.88
2022-12-08T04:46:11.327Z,97555.81
2022-12-08T04:48:38.447Z,97565.50
2022-12-08T04:51:05.133Z,97562.88
2022-12-08T04:53:31.853Z,97562.88
2022-12-08T04:55:58.425Z,97559.19
2022-12-08T04:58:24.931Z,97555.75
2022-12-08T05:00:51.607Z,97549.59
2022-12-08T05:03:18.113Z,97565.34
2022-12-08T05:05:45.593Z,97512.41
2022-12-08T05:08:12.634Z,97485.78
2022-12-08T05:10:39.990Z,97521.59
2022-12-08T05:13:06.654Z,97536.44
2022-12-08T05:15:33.148Z,97552.97
2022-12-08T05:17:59.875Z,97560.81
2022-12-08T05:20:29.354Z,97549.69
2022-12-08T05:22:56.388Z,97430.59
2022-12-08T05:25:23.179Z,97552.97
2022-12-08T05:27:49.880Z,97483.47
2022-12-08T05:30:17.104Z,97550.50
2022-12-08T05:32:44.311Z,97515.31
2022-12-08T05:35:12.016Z,97549.72
2022-12-08T05:37:38.705Z,97547.88
2022-12-08T05:40:08.591Z,97460.66
2022-12-08T05:42:36.047Z,97511.66
2022-12-08T05:45:03.026Z,97516.72
2022-12-08T05:47:35.709Z,97536.22
2022-12-08T05:50:03.076Z,97540.63
2022-12-08T05:52:31.734Z,97534.81
2022-12-08T05:54:58.535Z,97507.97
2022-12-08T05:57:25.566Z,97496.44
2022-12-08T05:59:52.155Z,97521.34
2022-12-08T06:02:19.687Z,97498.41
2022-12-08T06:04:46.717Z,97504.88
2022-12-08T06:07:16.150Z,97527.94
2022-12-08T06:09:44.752Z,97515.28
2022-12-08T06:12:13.157Z,97528.59
2022-12-08T06:14:41.229Z,97511.47
2022-12-08T06:17:08.240Z,97556.44
2022-12-08T06:19:34.984Z,97531.94
2022-12-08T06:22:03.049Z,97553.13
2022-12-08T06:24:31.759Z,97510.19
2022-12-08T06:27:02.409Z,97531.53
2022-12-08T06:29:28.920Z,97504.19
2022-12-08T06:31:56.683Z,97532.91
2022-12-08T06:34:23.415Z,97526.16
2022-12-08T06:36:49.898Z,97459.78
2022-12-08T06:39:16.440Z,97527.66
2022-12-08T06:42:04.699Z,97533.34
2022-12-08T06:44:35.790Z,97513.81
2022-12-08T06:47:05.942Z,97483.66
2022-12-08T06:49:32.627Z,97463.28
2022-12-08T06:52:00.281Z,97393.94
2022-12-08T06:54:26.811Z,97478.34
2022-12-08T06:56:54.322Z,97530.44
2022-12-08T06:59:20.876Z,97511.31
2022-12-08T07:01:48.638Z,97528.78
2022-12-08T07:04:17.700Z,97524.69
2022-12-08T07:06:45.628Z,97481.38
2022-12-08T07:09:12.507Z,97537.69
2022-12-08T07:11:40.376Z,97541.72
2022-12-08T07:14:07.631Z,97558.00
2022-12-08T07:16:34.828Z,97556.34
2022-12-08T07:19:03.642Z,97557.13
2022-12-08T07:21:30.627Z,97482.31
2022-12-08T07:23:58.095Z,97551.50
2022-12-08T07:26:25.864Z,97562.81
2022-12-08T07:28:53.796Z,97564.81
2022-12-08T07:31:23.032Z,97552.47
2022-12-08T07:33:50.886Z,97551.50
2022-12-08T07:36:17.994Z,97482.69
2022-12-08T07:38:44.810Z,97537.84
2022-12-08T07:41:23.209Z,97505.94
2022-12-08T07:43:53.775Z,97543.84
2022-12-08T07:46:27.284Z,97543.19
2022-12-08T07:48:55.218Z,97519.78
2022-12-08T07:51:22.747Z,97546.84
2022-12-08T07:53:54.141Z,97536.94
2022-12-08T07:56:22.130Z,97538.75
2022-12-08T07:58:48.723Z,97491.34
2022-12-08T08:01:24.992Z,97544.22
2022-12-08T08:03:55.253Z,97520.03
2022-12-08T08:06:25.689Z,97501.13
2022-12-08T08:08:53.489Z,97515.84
2022-12-08T08:11:22.663Z,97525.00
2022-12-08T08:13:50.215Z,97500.50
2022-12-08T08:16:19.292Z,97513.13
2022-12-08T08:18:51.251Z,97471.47
2022-12-08T08:24:07.652Z,97503.88
2022-12-08T08:26:34.471Z,97516.88
2022-12-08T08:29:02.834Z,97530.97
2022-12-08T08:31:29.354Z,97532.53
2022-12-08T08:33:57.461Z,97519.56
2022-12-08T08:36:24.306Z,97535.03
2022-12-08T08:38:53.653Z,97528.72
2022-12-08T08:41:20.430Z,97549.97
2022-12-08T08:43:49.228Z,97531.31
2022-12-08T08:46:16.148Z,97493.28
2022-12-08T08:48:43.187Z,97480.56
2022-12-08T08:51:16.791Z,97525.75
2022-12-08T08:53:44.584Z,97503.34
2022-12-08T08:56:20.446Z,97528.59
2022-12-08T08:58:57.351Z,97528.59
2022-12-08T09:01:27.749Z,97460.34
2022-12-08T09:03:59.663Z,97528.22
2022-12-08T09:06:28.281Z,97532.88
2022-12-08T09:08:55.084Z,97383.41
2022-12-08T09:11:23.410Z,97481.72
2022-12-08T09:13:52.191Z,97522.38
2022-12-08T09:16:19.559Z,97521.38
2022-12-08T09:18:48.261Z,97432.66
2022-12-08T09:21:23.307Z,97524.47
2022-12-08T09:24:00.346Z,97481.56
2022-12-08T09:26:28.922Z,97526.31
2022-12-08T09:28:56.918Z,97523.06
2022-12-08T09:31:24.816Z,97469.38
2022-12-08T09:33:51.754Z,97514.44
2022-12-08T09:36:31.267Z,97528.19
2022-12-08T09:38:58.028Z,97431.81
2022-12-08T09:41:37.914Z,97516.97
2022-12-08T09:44:25.671Z,97510.50
2022-12-08T09:46:53.561Z,97382.41
2022-12-08T09:49:24.627Z,97517.41
2022-12-08T09:51:56.029Z,97476.59
2022-12-08T09:54:33.634Z,97480.59
2022-12-08T09:57:07.234Z,97391.41
2022-12-08T09:59:35.870Z,97486.19
2022-12-08T10:02:05.820Z,97511.34
2022-12-08T10:04:39.087Z,97485.34
2022-12-08T10:07:19.300Z,97499.44
2022-12-08T10:10:01.028Z,97442.75
2022-12-08T10:12:44.710Z,97489.47
2022-12-08T10:15:39.518Z,97492.75
2022-12-08T10:18:17.993Z,97489.91
2022-12-08T10:20:47.981Z,97486.66
2022-12-08T10:23:37.000Z,97478.53
2022-12-08T10:26:12.316Z,97481.78
2022-12-08T10:28:45.788Z,97481.00
2022-12-08T10:31:23.565Z,97427.81
2022-12-08T10:33:58.984Z,97477.78
2022-12-08T10:36:56.444Z,97456.28
2022-12-08T10:39:40.238Z,97460.94
2022-12-08T10:42:22.469Z,97440.09
2022-12-08T10:45:24.224Z,97464.84
2022-12-08T10:48:02.421Z,97429.53
2022-12-08T10:50:35.837Z,97462.88
2022-12-08T10:53:08.768Z,97457.22
2022-12-08T10:55:47.465Z,97405.22
2022-12-08T10:58:25.235Z,97387.75
2022-12-08T11:03:56.797Z,97448.31
2022-12-08T11:06:33.073Z,97445.09
2022-12-08T11:09:10.670Z,97443.44
2022-12-08T11:12:07.297Z,97435.16
2022-12-08T11:14:46.124Z,97439.22
2022-12-08T11:17:31.697Z,97435.38
2022-12-08T11:20:08.930Z,97357.00
2022-12-08T11:22:39.730Z,97393.34
2022-12-08T11:25:21.202Z,97400.47
2022-12-08T11:27:50.886Z,97366.97
2022-12-08T11:30:36.953Z,97413.06
2022-12-08T11:33:13.310Z,97416.13
2022-12-08T11:35:43.350Z,97406.38
2022-12-08T11:38:22.796Z,97411.47
2022-12-08T11:41:16.132Z,97406.81
2022-12-08T11:44:11.654Z,97414.72
2022-12-08T11:47:18.088Z,97389.13
2022-12-08T11:49:48.075Z,97400.78
2022-12-08T11:52:31.658Z,97365.63
2022-12-08T11:55:50.195Z,97385.56
2022-12-08T11:58:27.185Z,97352.25
2022-12-08T12:00:54.017Z,97330.97
2022-12-08T12:03:46.498Z,97360.81
2022-12-08T12:06:56.272Z,97381.09
2022-12-08T12:09:38.144Z,97369.94
2022-12-08T12:12:39.422Z,97371.16
2022-12-08T12:15:19.114Z,97379.88
2022-12-08T12:17:59.376Z,97368.53
2022-12-08T12:20:38.002Z,97365.69
2022-12-08T12:23:19.310Z,97354.91
2022-12-08T12:26:03.083Z,97361.22
2022-12-08T12:28:40.718Z,97357.34
2022-12-08T12:31:18.279Z,97332.19
2022-12-08T12:33:46.605Z,97356.75
2022-12-08T12:36:14.709Z,97361.19
2022-12-08T12:39:09.631Z,97339.72
2022-12-08T12:41:53.508Z,97292.69
2022-12-08T12:44:35.811Z,97346.41
2022-12-08T12:47:10.682Z,97325.50
2022-12-08T12:49:40.248Z,97346.38
2022-12-08T12:52:12.384Z,97348.03
2022-12-08T12:54:45.047Z,97343.72
2022-12-08T12:57:23.505Z,97341.72
2022-12-08T12:59:57.236Z,97343.09
2022-12-08T13:02:26.185Z,97308.00
2022-12-08T13:05:14.412Z,97334.56
2022-12-08T13:08:02.588Z,97335.53
2022-12-08T13:10:32.826Z,97317.28
2022-12-08T13:13:12.679Z,97326.56
2022-12-08T13:15:46.972Z,97296.78
2022-12-08T13:18:21.816Z,97304.28
2022-12-08T13:20:56.206Z,97325.38
2022-12-08T13:24:07.705Z,97332.72
2022-12-08T13:26:44.233Z,97328.66
2022-12-08T13:29:29.116Z,97277.19
2022-12-08T13:31:56.874Z,97309.97
2022-12-08T13:34:55.756Z,97317.09
2022-12-08T13:37:31.236Z,97312.03
2022-12-08T13:40:26.494Z,97323.00
2022-12-08T13:43:16.805Z,97320.16
2022-12-08T13:46:52.533Z,97294.63
2022-12-08T13:55:49.532Z,97313.72
2022-12-08T13:57:39.019Z,97315.53
2022-12-08T14:00:14.833Z,97322.66
2022-12-08T14:02:48.591Z,97298.72
2022-12-08T14:05:20.411Z,97320.22
2022-12-08T14:08:06.737Z,97299.94
2022-12-08T14:10:33.535Z,97175.84
2022-12-08T14:13:12.180Z,97325.91
2022-12-08T14:15:45.300Z,97315.34
2022-12-08T14:18:29.404Z,97268.31
2022-12-08T14:21:21.944Z,97254.09
2022-12-08T14:23:50.501Z,97284.94
2022-12-08T14:26:18.574Z,97269.09
2022-12-08T14:28:46.749Z,97277.63
2022-12-08T14:31:15.869Z,97299.13
2022-12-08T14:33:43.780Z,97318.59
2022-12-08T14:36:11.217Z,97305.19
2022-12-08T14:38:39.460Z,97334.84
2022-12-08T14:41:09.132Z,97189.22
2022-12-08T14:43:41.044Z,97323.69
2022-12-08T14:46:28.488Z,97308.44
2022-12-08T14:48:58.195Z,97308.84
2022-12-08T14:51:35.493Z,97324.09
2022-12-08T14:54:16.233Z,97321.47
2022-12-08T14:56:54.901Z,97326.72
2022-12-08T14:59:27.227Z,97306.41
2022-12-08T15:02:18.220Z,97322.69
2022-12-08T15:04:55.266Z,97320.63
2022-12-08T15:07:31.090Z,97320.19
2022-12-08T15:10:31.859Z,97323.47
2022-12-08T15:13:14.508Z,97337.63
2022-12-08T15:15:56.634Z,97327.88
2022-12-08T15:18:43.939Z,97327.91
2022-12-08T15:21:15.544Z,97339.66
2022-12-08T15:23:50.512Z,97292.56
2022-12-08T15:26:23.601Z,97339.25
2022-12-08T15:28:52.527Z,97334.78
2022-12-08T15:31:20.352Z,97327.06
2022-12-08T15:33:47.158Z,97301.28
2022-12-08T15:36:18.994Z,97278.38
2022-12-08T15:38:45.578Z,97286.91
2022-12-08T15:41:15.354Z,97329.09
2022-12-08T15:43:42.195Z,97298.25
2022-12-08T15:46:08.913Z,97321.41
2022-12-08T15:48:37.768Z,97252.81
2022-12-08T15:51:04.449Z,97328.66
2022-12-08T15:53:32.357Z,97250.78
2022-12-08T15:56:26.857Z,97335.56
2022-12-08T15:58:58.913Z,97263.34
2022-12-08T16:01:28.484Z,97321.59
2022-12-08T16:09:41.717Z,97299.44
2022-12-08T16:13:13.849Z,97317.31
2022-12-08T16:18:15.705Z,97305.53
2022-12-08T16:21:07.561Z,97315.28
2022-12-08T16:23:42.787Z,97299.47
2022-12-08T16:26:44.156Z,97293.34
2022-12-08T16:29:05.375Z,97309.81
2022-12-08T16:31:33.935Z,97306.53
2022-12-08T16:34:08.199Z,97285.84
2022-12-08T16:36:37.256Z,97262.91
2022-12-08T16:39:08.057Z,97277.94
2022-12-08T16:42:14.328Z,97289.69
2022-12-08T16:44:42.400Z,97300.03
2022-12-08T16:47:11.241Z,97259.25
2022-12-08T16:49:42.750Z,97283.00
2022-12-08T16:52:10.532Z,97303.28
2022-12-08T16:54:39.309Z,97244.66
2022-12-08T16:57:06.029Z,97268.59
2022-12-08T16:59:32.582Z,97257.66
2022-12-08T17:01:59.161Z,97277.13
2022-12-08T17:04:33.321Z,97288.03
2022-12-08T17:07:00.410Z,97250.28
2022-12-08T17:09:31.419Z,97279.69
2022-12-08T17:12:03.680Z,97296.88
2022-12-08T17:14:35.457Z,97270.69
2022-12-08T17:17:03.241Z,97276.91
2022-12-08T17:19:38.425Z,97268.84
2022-12-08T17:22:05.301Z,97288.34
2022-12-08T17:24:32.107Z,97272.72
2022-12-08T17:27:06.992Z,97260.75
2022-12-08T17:29:34.837Z,97290.56
2022-12-08T17:32:03.583Z,97301.69
2022-12-08T17:34:31.788Z,97238.78
2022-12-08T17:37:01.166Z,97254.16
2022-12-08T17:39:28.253Z,97257.06
2022-12-08T17:41:54.923Z,97285.41
2022-12-08T17:44:21.809Z,97275.25
2022-12-08T17:46:52.900Z,97154.34
2022-12-08T17:49:26.427Z,97280.75
2022-12-08T17:51:58.393Z,97189.50
2022-12-08T17:54:27.804Z,97285.06
2022-12-08T17:57:01.879Z,97289.50
2022-12-08T17:59:30.688Z,97273.63
2022-12-08T18:01:58.903Z,97293.56
2022-12-08T18:04:26.758Z,97295.19
2022-12-08T18:06:53.738Z,97263.13
2022-12-08T18:09:20.704Z,97291.13
2022-12-08T18:11:48.766Z,97268.38
2022-12-08T18:14:17.154Z,97298.81
2022-12-08T18:16:45.551Z,97292.34
2022-12-08T18:19:16.486Z,97293.38
2022-12-08T18:21:43.885Z,97286.03
2022-12-08T18:24:19.221Z,97288.50
2022-12-08T18:26:47.314Z,97276.47
2022-12-08T18:29:14.782Z,97230.16
2022-12-08T18:31:42.343Z,97274.59
2022-12-08T18:34:11.339Z,97248.81
2022-12-08T18:36:37.878Z,97276.00
2022-12-08T18:39:10.523Z,97295.88
2022-12-08T18:41:37.533Z,97249.38
2022-12-08T18:44:04.335Z,97266.56
2022-12-08T18:46:31.080Z,97284.31
2022-12-08T18:48:58.179Z,97202.19
2022-12-08T18:51:24.820Z,97228.72
2022-12-08T18:53:53.157Z,97198.31
2022-12-08T18:56:28.373Z,97223.81
2022-12-08T18:59:03.323Z,97251.81
2022-12-08T19:01:31.898Z,97274.66
2022-12-08T19:06:53.249Z,97236.81
2022-12-08T19:09:20.525Z,97290.88
2022-12-08T19:11:47.252Z,97264.00
2022-12-08T19:17:05.294Z,97274.03
2022-12-08T19:19:31.980Z,97267.84
2022-12-08T19:22:00.196Z,97280.69
2022-12-08T19:24:29.688Z,97259.78
2022-12-08T19:26:56.347Z,97287.63
2022-12-08T19:29:23.294Z,97260.03
2022-12-08T19:31:51.314Z,97216.97
2022-12-08T19:34:18.283Z,97249.06
2022-12-08T19:36:50.398Z,97267.56
2022-12-08T19:39:39.333Z,97256.53
2022-12-08T19:42:34.606Z,97278.44
2022-12-08T19:45:05.874Z,97265.69
2022-12-08T19:47:32.653Z,97284.75
2022-12-08T19:50:17.958Z,97247.47
2022-12-08T19:52:45.315Z,97248.13
2022-12-08T19:55:12.842Z,97285.13
2022-12-08T19:57:39.619Z,97208.06
2022-12-08T20:00:09.728Z,97194.56
2022-12-08T20:02:38.972Z,97192.31
2022-12-08T20:05:06.602Z,97210.88
2022-12-08T20:07:34.090Z,97246.28
2022-12-08T20:10:02.848Z,97254.41
2022-12-08T20:12:29.480Z,97260.34
2022-12-08T20:14:58.263Z,97236.03
2022-12-08T20:17:27.454Z,97268.13
2022-12-08T20:19:53.989Z,97233.84
2022-12-08T20:22:23.567Z,97274.22
2022-12-08T20:24:58.408Z,97220.84
2022-12-08T20:27:29.204Z,97240.69
2022-12-08T20:29:57.478Z,97273.81
2022-12-08T20:32:24.315Z,97260.25
2022-12-08T20:34:51.020Z,97142.66
2022-12-08T20:37:17.770Z,97213.56
2022-12-08T20:39:44.471Z,97268.78
2022-12-08T20:42:13.898Z,97267.56
2022-12-08T20:44:44.363Z,97185.69
2022-12-08T20:47:12.339Z,97227.16
2022-12-08T20:49:39.265Z,97240.63
2022-12-08T20:52:07.690Z,97250.41
2022-12-08T20:54:35.151Z,97170.69
2022-12-08T20:57:01.794Z,97203.50
2022-12-08T20:59:29.662Z,97276.38
2022-12-08T21:01:56.703Z,97193.06
2022-12-08T21:04:23.891Z,97273.56
2022-12-08T21:06:50.642Z,97278.28
2022-12-08T21:09:17.674Z,97276.19
2022-12-08T21:11:49.237Z,97246.06
2022-12-08T21:14:15.986Z,97275.28
2022-12-08T21:16:42.672Z,97256.28
2022-12-08T21:19:09.905Z,97276.34
2022-12-08T21:21:36.572Z,97214.81
2022-12-08T21:24:05.747Z,97230.34
2022-12-08T21:26:32.785Z,97234.66
2022-12-08T21:29:00.235Z,97266.78
2022-12-08T21:31:28.904Z,97263.28
2022-12-08T21:33:55.749Z,97270.63
2022-12-08T21:36:24.213Z,97244.44
2022-12-08T21:38:51.382Z,97206.69
2022-12-08T21:41:38.670Z,97266.97
2022-12-08T21:44:08.952Z,97243.78
2022-12-08T21:46:35.991Z,97283.53
2022-12-08T21:49:03.596Z,97264.91
2022-12-08T21:51:33.468Z,97271.88
2022-12-08T21:54:00.858Z,97271.72
2022-12-08T21:56:27.830Z,97224.03
2022-12-08T21:58:54.671Z,97246.53
2022-12-08T22:01:21.444Z,97166.34
2022-12-08T22:03:48.390Z,97246.47
2022-12-08T22:06:15.198Z,97271.47
2022-12-08T22:08:42.873Z,97224.78
2022-12-08T22:11:11.444Z,97252.41
2022-12-08T22:13:41.633Z,97273.53
2022-12-08T22:16:11.496Z,97274.50
2022-12-08T22:18:38.762Z,97245.91
2022-12-08T22:21:16.720Z,97277.53
2022-12-08T22:23:44.554Z,97234.34
2022-12-08T22:26:11.804Z,97274.34
2022-12-08T22:28:42.949Z,97244.88
2022-12-08T22:31:17.481Z,97268.66
2022-12-08T22:33:44.976Z,97263.59
2022-12-08T22:36:22.574Z,97265.34
2022-12-08T22:38:50.734Z,97266.97
2022-12-08T22:41:18.341Z,97221.00
2022-12-08T22:43:46.305Z,97207.38
2022-12-08T22:46:16.071Z,97253.91
2022-12-08T22:48:46.092Z,97195.75
2022-12-08T22:51:13.083Z,97249.00
2022-12-08T22:53:40.709Z,97223.81
2022-12-08T22:56:10.057Z,97244.97
2022-12-08T22:58:38.790Z,97232.38
2022-12-08T23:01:07.614Z,97226.66
2022-12-08T23:03:34.825Z,97201.06
2022-12-08T23:06:02.398Z,97235.56
2022-12-08T23:08:29.358Z,97190.06
2022-12-08T23:10:57.970Z,97228.06
2022-12-08T23:13:24.962Z,97211.63
2022-12-08T23:15:51.828Z,97182.63
2022-12-08T23:18:19.594Z,97224.53
2022-12-08T23:20:47.041Z,97220.69
2022-12-08T23:23:14.240Z,97193.06
2022-12-08T23:25:43.030Z,97194.69
2022-12-08T23:28:10.721Z,97223.06
2022-12-08T23:30:40.789Z,97213.53
2022-12-08T23:33:07.453Z,97168.75
2022-12-08T23:35:34.107Z,97176.25
2022-12-08T23:38:00.810Z,97207.22
2022-12-08T23:40:27.511Z,97125.66
2022-12-08T23:42:54.413Z,97168.72
2022-12-08T23:45:21.193Z,97185.94
2022-12-08T23:47:47.712Z,97202.38
2022-12-08T23:50:14.522Z,97198.75
2022-12-08T23:52:43.215Z,97175.16
2022-12-08T23:55:11.455Z,97178.13
2022-12-08T23:57:38.775Z,97151.22
